sensor_id;sensor_type;location;lat;lon;timestamp;temperature;humidity
67893;DHT22;54688;52.376;16.744;2023-05-16T00:02:09;10;85.6
67893;DHT22;54688;52.376;16.744;2023-05-16T00:05:11;10;85.7
67893;DHT22;54688;52.376;16.744;2023-05-16T00:08:13;10;85.7
67893;DHT22;54688;52.376;16.744;2023-05-16T00:11:15;9.9;85.7
67893;DHT22;54688;52.376;16.744;2023-05-16T00:14:17;9.9;85.8
67893;DHT22;54688;52.376;16.744;2023-05-16T00:17:19;9.8;85.8
67893;DHT22;54688;52.376;16.744;2023-05-16T00:20:21;9.8;86
67893;DHT22;54688;52.376;16.744;2023-05-16T00:23:23;9.8;86
67893;DHT22;54688;52.376;16.744;2023-05-16T00:26:26;9.8;85.9
67893;DHT22;54688;52.376;16.744;2023-05-16T00:29:28;9.8;86.5
67893;DHT22;54688;52.376;16.744;2023-05-16T00:32:30;9.8;85.7
67893;DHT22;54688;52.376;16.744;2023-05-16T00:35:32;9.8;85.7
67893;DHT22;54688;52.376;16.744;2023-05-16T00:38:34;9.7;85.8
67893;DHT22;54688;52.376;16.744;2023-05-16T00:41:36;9.8;85.9
67893;DHT22;54688;52.376;16.744;2023-05-16T00:44:38;9.7;85.9
67893;DHT22;54688;52.376;16.744;2023-05-16T00:47:40;9.7;85.9
67893;DHT22;54688;52.376;16.744;2023-05-16T00:50:42;9.7;85.9
67893;DHT22;54688;52.376;16.744;2023-05-16T00:53:44;9.7;85.9
67893;DHT22;54688;52.376;16.744;2023-05-16T00:56:46;9.7;86
67893;DHT22;54688;52.376;16.744;2023-05-16T00:59:48;9.6;86
67893;DHT22;54688;52.376;16.744;2023-05-16T01:02:51;9.6;85.8
67893;DHT22;54688;52.376;16.744;2023-05-16T01:05:53;9.6;85.7
67893;DHT22;54688;52.376;16.744;2023-05-16T01:08:55;9.6;86
67893;DHT22;54688;52.376;16.744;2023-05-16T01:12:01;9.5;85.9
67893;DHT22;54688;52.376;16.744;2023-05-16T01:15:13;9.5;85.8
67893;DHT22;54688;52.376;16.744;2023-05-16T01:18:22;9.5;86
67893;DHT22;54688;52.376;16.744;2023-05-16T01:21:31;9.5;86.1
67893;DHT22;54688;52.376;16.744;2023-05-16T01:24:46;9.5;86.2
67893;DHT22;54688;52.376;16.744;2023-05-16T01:27:58;9.5;86.5
67893;DHT22;54688;52.376;16.744;2023-05-16T01:31:02;9.6;86.7
67893;DHT22;54688;52.376;16.744;2023-05-16T01:34:04;9.6;86.6
67893;DHT22;54688;52.376;16.744;2023-05-16T01:37:08;9.7;86.4
67893;DHT22;54688;52.376;16.744;2023-05-16T01:40:18;9.7;86.3
67893;DHT22;54688;52.376;16.744;2023-05-16T01:43:28;9.8;86.2
67893;DHT22;54688;52.376;16.744;2023-05-16T01:46:36;9.8;86.1
67893;DHT22;54688;52.376;16.744;2023-05-16T01:49:42;9.8;86.1
67893;DHT22;54688;52.376;16.744;2023-05-16T01:52:52;9.8;85.7
67893;DHT22;54688;52.376;16.744;2023-05-16T01:55:59;9.8;85.8
67893;DHT22;54688;52.376;16.744;2023-05-16T01:59:02;9.8;85.6
67893;DHT22;54688;52.376;16.744;2023-05-16T02:02:05;9.9;85.3
67893;DHT22;54688;52.376;16.744;2023-05-16T02:05:08;9.8;84.7
67893;DHT22;54688;52.376;16.744;2023-05-16T02:08:10;9.8;84.7
67893;DHT22;54688;52.376;16.744;2023-05-16T02:11:14;9.6;84.7
67893;DHT22;54688;52.376;16.744;2023-05-16T02:14:16;9.6;84.8
67893;DHT22;54688;52.376;16.744;2023-05-16T02:17:17;9.5;84.8
67893;DHT22;54688;52.376;16.744;2023-05-16T02:20:19;9.4;85
67893;DHT22;54688;52.376;16.744;2023-05-16T02:23:21;9.4;85.2
67893;DHT22;54688;52.376;16.744;2023-05-16T02:26:23;9.3;85.4
67893;DHT22;54688;52.376;16.744;2023-05-16T02:29:26;9.2;85.6
67893;DHT22;54688;52.376;16.744;2023-05-16T02:32:29;9.2;85.6
67893;DHT22;54688;52.376;16.744;2023-05-16T02:35:30;9.2;85.7
67893;DHT22;54688;52.376;16.744;2023-05-16T02:38:33;9.2;85.9
67893;DHT22;54688;52.376;16.744;2023-05-16T02:41:34;9.1;86.1
67893;DHT22;54688;52.376;16.744;2023-05-16T02:44:37;9.1;86.3
67893;DHT22;54688;52.376;16.744;2023-05-16T02:47:39;9.1;86.6
67893;DHT22;54688;52.376;16.744;2023-05-16T02:50:41;9.2;86.6
67893;DHT22;54688;52.376;16.744;2023-05-16T02:53:43;9.2;85.9
67893;DHT22;54688;52.376;16.744;2023-05-16T02:56:45;9.2;86.4
67893;DHT22;54688;52.376;16.744;2023-05-16T02:59:47;9.2;86.4
67893;DHT22;54688;52.376;16.744;2023-05-16T03:02:49;9.3;86.4
67893;DHT22;54688;52.376;16.744;2023-05-16T03:05:51;9.3;86.3
67893;DHT22;54688;52.376;16.744;2023-05-16T03:08:53;9.4;86.3
67893;DHT22;54688;52.376;16.744;2023-05-16T03:11:55;9.4;86.3
67893;DHT22;54688;52.376;16.744;2023-05-16T03:14:57;9.4;86
67893;DHT22;54688;52.376;16.744;2023-05-16T03:17:59;9.5;85.7
67893;DHT22;54688;52.376;16.744;2023-05-16T03:21:02;9.5;85.4
67893;DHT22;54688;52.376;16.744;2023-05-16T03:24:04;9.5;85.4
67893;DHT22;54688;52.376;16.744;2023-05-16T03:27:06;9.5;85.2
67893;DHT22;54688;52.376;16.744;2023-05-16T03:30:08;9.5;85
67893;DHT22;54688;52.376;16.744;2023-05-16T03:33:11;9.5;85
67893;DHT22;54688;52.376;16.744;2023-05-16T03:36:13;9.5;85
67893;DHT22;54688;52.376;16.744;2023-05-16T03:39:15;9.5;85
67893;DHT22;54688;52.376;16.744;2023-05-16T03:42:17;9.6;84.8
67893;DHT22;54688;52.376;16.744;2023-05-16T03:45:19;9.6;84.5
67893;DHT22;54688;52.376;16.744;2023-05-16T03:48:22;9.6;84.5
67893;DHT22;54688;52.376;16.744;2023-05-16T03:51:23;9.6;84.5
67893;DHT22;54688;52.376;16.744;2023-05-16T03:54:26;9.6;84.3
67893;DHT22;54688;52.376;16.744;2023-05-16T03:57:29;9.6;84.3
67893;DHT22;54688;52.376;16.744;2023-05-16T04:00:31;9.6;83.9
67893;DHT22;54688;52.376;16.744;2023-05-16T04:03:34;9.6;83.7
67893;DHT22;54688;52.376;16.744;2023-05-16T04:06:36;9.6;83.8
67893;DHT22;54688;52.376;16.744;2023-05-16T04:09:38;9.5;84
67893;DHT22;54688;52.376;16.744;2023-05-16T04:12:40;9.5;84.3
67893;DHT22;54688;52.376;16.744;2023-05-16T04:18:42;9.5;84.4
67893;DHT22;54688;52.376;16.744;2023-05-16T04:21:44;9.5;84.2
67893;DHT22;54688;52.376;16.744;2023-05-16T04:24:46;9.5;84.3
67893;DHT22;54688;52.376;16.744;2023-05-16T04:27:48;9.5;84.1
67893;DHT22;54688;52.376;16.744;2023-05-16T04:30:50;9.5;84.3
67893;DHT22;54688;52.376;16.744;2023-05-16T04:33:53;9.6;84.3
67893;DHT22;54688;52.376;16.744;2023-05-16T04:36:55;9.6;84.3
67893;DHT22;54688;52.376;16.744;2023-05-16T04:39:57;9.6;84.4
67893;DHT22;54688;52.376;16.744;2023-05-16T04:42:59;9.6;84.4
67893;DHT22;54688;52.376;16.744;2023-05-16T04:46:01;9.7;84.4
67893;DHT22;54688;52.376;16.744;2023-05-16T04:49:03;9.7;84.3
67893;DHT22;54688;52.376;16.744;2023-05-16T04:52:05;9.7;84.4
67893;DHT22;54688;52.376;16.744;2023-05-16T04:55:08;9.7;84.5
67893;DHT22;54688;52.376;16.744;2023-05-16T04:58:11;9.8;84.6
67893;DHT22;54688;52.376;16.744;2023-05-16T05:01:14;9.8;84.6
67893;DHT22;54688;52.376;16.744;2023-05-16T05:04:16;9.9;84.6
67893;DHT22;54688;52.376;16.744;2023-05-16T05:07:18;9.9;84.5
67893;DHT22;54688;52.376;16.744;2023-05-16T05:10:20;9.9;84.6
67893;DHT22;54688;52.376;16.744;2023-05-16T05:13:23;9.9;84.6
67893;DHT22;54688;52.376;16.744;2023-05-16T05:16:24;10.1;84.6
67893;DHT22;54688;52.376;16.744;2023-05-16T05:19:27;10.1;84.7
67893;DHT22;54688;52.376;16.744;2023-05-16T05:22:29;10.2;84.5
67893;DHT22;54688;52.376;16.744;2023-05-16T05:25:31;10.3;83.9
67893;DHT22;54688;52.376;16.744;2023-05-16T05:28:34;10.3;83.6
67893;DHT22;54688;52.376;16.744;2023-05-16T05:31:36;10.4;83.4
67893;DHT22;54688;52.376;16.744;2023-05-16T05:34:38;10.4;83.1
67893;DHT22;54688;52.376;16.744;2023-05-16T05:37:40;10.4;82.8
67893;DHT22;54688;52.376;16.744;2023-05-16T05:40:42;10.5;82.8
67893;DHT22;54688;52.376;16.744;2023-05-16T05:43:44;10.4;82.3
67893;DHT22;54688;52.376;16.744;2023-05-16T05:46:46;10.5;82.2
67893;DHT22;54688;52.376;16.744;2023-05-16T05:49:49;10.6;82.4
67893;DHT22;54688;52.376;16.744;2023-05-16T05:52:51;10.6;82.1
67893;DHT22;54688;52.376;16.744;2023-05-16T05:55:53;10.7;81.7
67893;DHT22;54688;52.376;16.744;2023-05-16T05:59:03;10.9;81.1
67893;DHT22;54688;52.376;16.744;2023-05-16T06:02:05;10.9;81
67893;DHT22;54688;52.376;16.744;2023-05-16T06:05:08;11;80.9
67893;DHT22;54688;52.376;16.744;2023-05-16T06:08:10;11;80.7
67893;DHT22;54688;52.376;16.744;2023-05-16T06:11:12;11.1;80.7
67893;DHT22;54688;52.376;16.744;2023-05-16T06:14:14;11.2;80.5
67893;DHT22;54688;52.376;16.744;2023-05-16T06:17:16;11.2;79.5
67893;DHT22;54688;52.376;16.744;2023-05-16T06:20:18;11.2;79.7
67893;DHT22;54688;52.376;16.744;2023-05-16T06:23:20;11.2;80
67893;DHT22;54688;52.376;16.744;2023-05-16T06:26:22;11.3;79.6
67893;DHT22;54688;52.376;16.744;2023-05-16T06:29:24;11.3;79.6
67893;DHT22;54688;52.376;16.744;2023-05-16T06:32:25;11.4;79.3
67893;DHT22;54688;52.376;16.744;2023-05-16T06:35:27;11.4;79
67893;DHT22;54688;52.376;16.744;2023-05-16T06:38:29;11.5;78.2
67893;DHT22;54688;52.376;16.744;2023-05-16T06:41:32;11.5;78.1
67893;DHT22;54688;52.376;16.744;2023-05-16T06:44:34;11.6;78.4
67893;DHT22;54688;52.376;16.744;2023-05-16T06:47:36;11.6;78
67893;DHT22;54688;52.376;16.744;2023-05-16T06:50:39;11.7;78.7
67893;DHT22;54688;52.376;16.744;2023-05-16T06:53:41;11.7;79
67893;DHT22;54688;52.376;16.744;2023-05-16T06:56:43;11.8;78.6
67893;DHT22;54688;52.376;16.744;2023-05-16T06:59:45;11.9;78.1
67893;DHT22;54688;52.376;16.744;2023-05-16T07:02:47;12;77.9
67893;DHT22;54688;52.376;16.744;2023-05-16T07:05:49;12;78
67893;DHT22;54688;52.376;16.744;2023-05-16T07:08:51;12.1;77.2
67893;DHT22;54688;52.376;16.744;2023-05-16T07:11:53;12.1;76.7
67893;DHT22;54688;52.376;16.744;2023-05-16T07:14:55;12.1;76.8
67893;DHT22;54688;52.376;16.744;2023-05-16T07:17:57;12.1;76.2
67893;DHT22;54688;52.376;16.744;2023-05-16T07:20:59;12.2;76.8
67893;DHT22;54688;52.376;16.744;2023-05-16T07:24:01;12.2;76.8
67893;DHT22;54688;52.376;16.744;2023-05-16T07:27:03;12.2;76.7
67893;DHT22;54688;52.376;16.744;2023-05-16T07:30:05;12.2;75.6
67893;DHT22;54688;52.376;16.744;2023-05-16T07:33:08;12.3;75.5
67893;DHT22;54688;52.376;16.744;2023-05-16T07:36:10;12.4;75
67893;DHT22;54688;52.376;16.744;2023-05-16T07:39:11;12.4;74.6
67893;DHT22;54688;52.376;16.744;2023-05-16T07:42:13;12.4;74.7
67893;DHT22;54688;52.376;16.744;2023-05-16T07:45:16;12.5;74
67893;DHT22;54688;52.376;16.744;2023-05-16T07:48:17;12.5;74.7
67893;DHT22;54688;52.376;16.744;2023-05-16T07:51:19;12.6;74.5
67893;DHT22;54688;52.376;16.744;2023-05-16T07:54:21;12.8;74.3
67893;DHT22;54688;52.376;16.744;2023-05-16T07:57:24;12.9;73.9
67893;DHT22;54688;52.376;16.744;2023-05-16T08:00:26;13;73.1
67893;DHT22;54688;52.376;16.744;2023-05-16T08:03:28;13.1;73.8
67893;DHT22;54688;52.376;16.744;2023-05-16T08:06:30;13.2;73
67893;DHT22;54688;52.376;16.744;2023-05-16T08:09:32;13.3;72.5
67893;DHT22;54688;52.376;16.744;2023-05-16T08:12:34;13.4;72.6
67893;DHT22;54688;52.376;16.744;2023-05-16T08:15:37;13.5;72.4
67893;DHT22;54688;52.376;16.744;2023-05-16T08:18:39;13.7;72.5
67893;DHT22;54688;52.376;16.744;2023-05-16T08:21:42;13.8;70.5
67893;DHT22;54688;52.376;16.744;2023-05-16T08:24:43;13.8;70.4
67893;DHT22;54688;52.376;16.744;2023-05-16T08:27:47;13.9;69.3
67893;DHT22;54688;52.376;16.744;2023-05-16T08:30:50;13.9;69.6
67893;DHT22;54688;52.376;16.744;2023-05-16T08:33:52;14;68.6
67893;DHT22;54688;52.376;16.744;2023-05-16T08:36:54;14;69.5
67893;DHT22;54688;52.376;16.744;2023-05-16T08:39:56;14.2;70.2
67893;DHT22;54688;52.376;16.744;2023-05-16T08:42:58;14.3;68.2
67893;DHT22;54688;52.376;16.744;2023-05-16T08:46:00;14.4;68.8
67893;DHT22;54688;52.376;16.744;2023-05-16T08:49:02;14.5;68
67893;DHT22;54688;52.376;16.744;2023-05-16T08:52:05;14.5;66.7
67893;DHT22;54688;52.376;16.744;2023-05-16T08:55:09;14.6;67.3
67893;DHT22;54688;52.376;16.744;2023-05-16T08:58:12;14.6;66.2
67893;DHT22;54688;52.376;16.744;2023-05-16T09:01:14;14.7;67
67893;DHT22;54688;52.376;16.744;2023-05-16T09:04:17;14.8;66.6
67893;DHT22;54688;52.376;16.744;2023-05-16T09:07:20;14.8;66.5
67893;DHT22;54688;52.376;16.744;2023-05-16T09:10:22;15;66.3
67893;DHT22;54688;52.376;16.744;2023-05-16T09:16:23;15.3;66.1
67893;DHT22;54688;52.376;16.744;2023-05-16T09:19:25;15.4;64.4
67893;DHT22;54688;52.376;16.744;2023-05-16T09:22:28;15.5;63.4
67893;DHT22;54688;52.376;16.744;2023-05-16T09:25:29;15.6;61.2
67893;DHT22;54688;52.376;16.744;2023-05-16T09:28:31;15.7;61.4
67893;DHT22;54688;52.376;16.744;2023-05-16T09:31:33;15.8;62.5
67893;DHT22;54688;52.376;16.744;2023-05-16T09:34:36;15.9;62.3
67893;DHT22;54688;52.376;16.744;2023-05-16T09:37:42;15.8;60.6
67893;DHT22;54688;52.376;16.744;2023-05-16T09:40:45;15.8;60.9
67893;DHT22;54688;52.376;16.744;2023-05-16T09:43:47;15.9;60.6
67893;DHT22;54688;52.376;16.744;2023-05-16T09:46:52;16;60
67893;DHT22;54688;52.376;16.744;2023-05-16T09:49:54;16.1;60.5
67893;DHT22;54688;52.376;16.744;2023-05-16T09:52:57;16.3;61.5
67893;DHT22;54688;52.376;16.744;2023-05-16T09:56:00;16.4;62.5
67893;DHT22;54688;52.376;16.744;2023-05-16T09:59:03;16.3;60.3
67893;DHT22;54688;52.376;16.744;2023-05-16T10:02:11;16.1;58.9
67893;DHT22;54688;52.376;16.744;2023-05-16T10:05:14;16;61.6
67893;DHT22;54688;52.376;16.744;2023-05-16T10:08:17;15.9;61.7
67893;DHT22;54688;52.376;16.744;2023-05-16T10:11:21;15.8;60.3
67893;DHT22;54688;52.376;16.744;2023-05-16T10:14:24;15.8;61.3
67893;DHT22;54688;52.376;16.744;2023-05-16T10:17:27;15.8;62.1
67893;DHT22;54688;52.376;16.744;2023-05-16T10:20:32;15.8;61.2
67893;DHT22;54688;52.376;16.744;2023-05-16T10:23:35;15.8;59.3
67893;DHT22;54688;52.376;16.744;2023-05-16T10:26:39;15.8;61
67893;DHT22;54688;52.376;16.744;2023-05-16T10:29:41;15.8;60.8
67893;DHT22;54688;52.376;16.744;2023-05-16T10:32:45;15.9;60.9
67893;DHT22;54688;52.376;16.744;2023-05-16T10:38:47;15.9;61.1
67893;DHT22;54688;52.376;16.744;2023-05-16T10:41:50;16;60.8
67893;DHT22;54688;52.376;16.744;2023-05-16T10:44:53;16.1;59.6
67893;DHT22;54688;52.376;16.744;2023-05-16T10:47:55;16.2;59.4
67893;DHT22;54688;52.376;16.744;2023-05-16T10:50:59;16.3;57.9
67893;DHT22;54688;52.376;16.744;2023-05-16T10:54:04;16.4;58.1
67893;DHT22;54688;52.376;16.744;2023-05-16T10:57:10;16.4;58.2
67893;DHT22;54688;52.376;16.744;2023-05-16T11:00:14;16.4;56.3
67893;DHT22;54688;52.376;16.744;2023-05-16T11:03:23;16.3;56.9
67893;DHT22;54688;52.376;16.744;2023-05-16T11:06:25;16.2;57.5
67893;DHT22;54688;52.376;16.744;2023-05-16T11:09:29;16.2;57.1
67893;DHT22;54688;52.376;16.744;2023-05-16T11:12:47;16.3;58.4
67893;DHT22;54688;52.376;16.744;2023-05-16T11:15:50;16.5;58.3
67893;DHT22;54688;52.376;16.744;2023-05-16T11:18:52;16.6;57.6
67893;DHT22;54688;52.376;16.744;2023-05-16T11:22:10;16.7;55.7
67893;DHT22;54688;52.376;16.744;2023-05-16T11:25:14;16.8;56.1
67893;DHT22;54688;52.376;16.744;2023-05-16T11:28:17;17.1;55.9
67893;DHT22;54688;52.376;16.744;2023-05-16T11:31:19;17.2;53
67893;DHT22;54688;52.376;16.744;2023-05-16T11:34:22;17.3;55.2
67893;DHT22;54688;52.376;16.744;2023-05-16T11:37:24;17.5;54.2
67893;DHT22;54688;52.376;16.744;2023-05-16T11:40:26;17.5;54.2
67893;DHT22;54688;52.376;16.744;2023-05-16T11:43:28;17.5;53.8
67893;DHT22;54688;52.376;16.744;2023-05-16T11:46:32;17.5;54.3
67893;DHT22;54688;52.376;16.744;2023-05-16T11:49:34;17.5;54.9
67893;DHT22;54688;52.376;16.744;2023-05-16T11:52:36;17.4;54.9
67893;DHT22;54688;52.376;16.744;2023-05-16T11:55:39;17.3;54.9
67893;DHT22;54688;52.376;16.744;2023-05-16T11:58:41;17.1;54.4
67893;DHT22;54688;52.376;16.744;2023-05-16T12:01:44;16.8;55.7
67893;DHT22;54688;52.376;16.744;2023-05-16T12:04:46;16.7;56.5
67893;DHT22;54688;52.376;16.744;2023-05-16T12:07:48;16.6;56.3
67893;DHT22;54688;52.376;16.744;2023-05-16T12:10:50;16.6;56.4
67893;DHT22;54688;52.376;16.744;2023-05-16T12:13:53;16.6;55.9
67893;DHT22;54688;52.376;16.744;2023-05-16T12:16:56;16.6;57.1
67893;DHT22;54688;52.376;16.744;2023-05-16T12:19:58;16.6;57.1
67893;DHT22;54688;52.376;16.744;2023-05-16T12:23:01;16.7;55
67893;DHT22;54688;52.376;16.744;2023-05-16T12:26:03;16.7;56.5
67893;DHT22;54688;52.376;16.744;2023-05-16T12:29:05;16.8;56.9
67893;DHT22;54688;52.376;16.744;2023-05-16T12:32:07;16.8;55.9
67893;DHT22;54688;52.376;16.744;2023-05-16T12:35:09;16.8;56.5
67893;DHT22;54688;52.376;16.744;2023-05-16T12:38:13;16.8;56.3
67893;DHT22;54688;52.376;16.744;2023-05-16T12:41:16;16.8;56.7
67893;DHT22;54688;52.376;16.744;2023-05-16T12:44:19;16.7;58.4
67893;DHT22;54688;52.376;16.744;2023-05-16T12:47:21;16.6;57.9
67893;DHT22;54688;52.376;16.744;2023-05-16T12:50:25;16.5;58.6
67893;DHT22;54688;52.376;16.744;2023-05-16T12:53:27;16.4;57.6
67893;DHT22;54688;52.376;16.744;2023-05-16T12:56:29;16.3;57.9
67893;DHT22;54688;52.376;16.744;2023-05-16T12:59:31;16.1;58.2
67893;DHT22;54688;52.376;16.744;2023-05-16T13:02:33;16.1;58.5
67893;DHT22;54688;52.376;16.744;2023-05-16T13:05:36;15.9;59.3
67893;DHT22;54688;52.376;16.744;2023-05-16T13:08:38;15.9;59.6
67893;DHT22;54688;52.376;16.744;2023-05-16T13:11:40;15.7;58.4
67893;DHT22;54688;52.376;16.744;2023-05-16T13:14:42;15.6;59.5
67893;DHT22;54688;52.376;16.744;2023-05-16T13:17:44;15.4;59
67893;DHT22;54688;52.376;16.744;2023-05-16T13:20:46;15.3;60.9
67893;DHT22;54688;52.376;16.744;2023-05-16T13:23:47;15.2;62.4
67893;DHT22;54688;52.376;16.744;2023-05-16T13:26:50;15.2;61.9
67893;DHT22;54688;52.376;16.744;2023-05-16T13:29:52;15.1;62.5
67893;DHT22;54688;52.376;16.744;2023-05-16T13:32:55;15;62.7
67893;DHT22;54688;52.376;16.744;2023-05-16T13:35:57;15;63.1
67893;DHT22;54688;52.376;16.744;2023-05-16T13:38:59;14.8;63.9
67893;DHT22;54688;52.376;16.744;2023-05-16T13:42:00;14.8;62.2
67893;DHT22;54688;52.376;16.744;2023-05-16T13:45:03;14.8;63.6
67893;DHT22;54688;52.376;16.744;2023-05-16T13:48:06;14.8;63.7
67893;DHT22;54688;52.376;16.744;2023-05-16T13:51:09;14.9;64
67893;DHT22;54688;52.376;16.744;2023-05-16T13:54:11;14.9;63.9
67893;DHT22;54688;52.376;16.744;2023-05-16T13:57:14;14.8;63
67893;DHT22;54688;52.376;16.744;2023-05-16T14:03:17;14.7;63.1
67893;DHT22;54688;52.376;16.744;2023-05-16T14:06:19;14.7;63.6
67893;DHT22;54688;52.376;16.744;2023-05-16T14:09:21;14.7;62.7
67893;DHT22;54688;52.376;16.744;2023-05-16T14:12:23;14.7;63.3
67893;DHT22;54688;52.376;16.744;2023-05-16T14:15:25;14.8;63.4
67893;DHT22;54688;52.376;16.744;2023-05-16T14:18:27;14.8;63.5
67893;DHT22;54688;52.376;16.744;2023-05-16T14:21:29;14.8;63.8
67893;DHT22;54688;52.376;16.744;2023-05-16T14:24:31;14.9;63.4
67893;DHT22;54688;52.376;16.744;2023-05-16T14:27:35;14.9;64
67893;DHT22;54688;52.376;16.744;2023-05-16T14:30:37;14.8;64.1
67893;DHT22;54688;52.376;16.744;2023-05-16T14:33:39;14.7;63.9
67893;DHT22;54688;52.376;16.744;2023-05-16T14:36:41;14.6;64.6
67893;DHT22;54688;52.376;16.744;2023-05-16T14:39:43;14.5;63.9
67893;DHT22;54688;52.376;16.744;2023-05-16T14:42:45;14.4;65
67893;DHT22;54688;52.376;16.744;2023-05-16T14:45:49;14.4;65.2
67893;DHT22;54688;52.376;16.744;2023-05-16T14:48:51;14.3;65.4
67893;DHT22;54688;52.376;16.744;2023-05-16T14:51:53;14.3;65.9
67893;DHT22;54688;52.376;16.744;2023-05-16T14:54:55;14.3;66.7
67893;DHT22;54688;52.376;16.744;2023-05-16T14:57:56;14.4;65
67893;DHT22;54688;52.376;16.744;2023-05-16T15:00:58;14.3;63.6
67893;DHT22;54688;52.376;16.744;2023-05-16T15:04:02;14.2;64.7
67893;DHT22;54688;52.376;16.744;2023-05-16T15:07:04;14.2;64.9
67893;DHT22;54688;52.376;16.744;2023-05-16T15:10:08;14.1;65.1
67893;DHT22;54688;52.376;16.744;2023-05-16T15:13:10;14;65.3
67893;DHT22;54688;52.376;16.744;2023-05-16T15:16:12;14;65.7
67893;DHT22;54688;52.376;16.744;2023-05-16T15:19:15;14;66.3
67893;DHT22;54688;52.376;16.744;2023-05-16T15:22:17;14;66.1
67893;DHT22;54688;52.376;16.744;2023-05-16T15:25:19;13.9;65.9
67893;DHT22;54688;52.376;16.744;2023-05-16T15:28:22;13.8;67.4
67893;DHT22;54688;52.376;16.744;2023-05-16T15:31:23;13.7;67.1
67893;DHT22;54688;52.376;16.744;2023-05-16T15:34:26;13.6;67.6
67893;DHT22;54688;52.376;16.744;2023-05-16T15:37:28;13.5;67.6
67893;DHT22;54688;52.376;16.744;2023-05-16T15:40:29;13.5;67.9
67893;DHT22;54688;52.376;16.744;2023-05-16T15:43:31;13.4;68.4
67893;DHT22;54688;52.376;16.744;2023-05-16T15:46:33;13.4;69.3
67893;DHT22;54688;52.376;16.744;2023-05-16T15:49:35;13.3;69.2
67893;DHT22;54688;52.376;16.744;2023-05-16T15:52:38;13.3;68.4
67893;DHT22;54688;52.376;16.744;2023-05-16T15:55:40;13.2;67.8
67893;DHT22;54688;52.376;16.744;2023-05-16T15:58:42;13.1;68.7
67893;DHT22;54688;52.376;16.744;2023-05-16T16:01:46;13;69.8
67893;DHT22;54688;52.376;16.744;2023-05-16T16:04:48;12.9;69.5
67893;DHT22;54688;52.376;16.744;2023-05-16T16:07:50;12.9;69.8
67893;DHT22;54688;52.376;16.744;2023-05-16T16:10:52;12.8;70
67893;DHT22;54688;52.376;16.744;2023-05-16T16:13:55;12.8;69.2
67893;DHT22;54688;52.376;16.744;2023-05-16T16:16:57;12.7;69.3
67893;DHT22;54688;52.376;16.744;2023-05-16T16:20:00;12.7;70.9
67893;DHT22;54688;52.376;16.744;2023-05-16T16:23:03;12.7;71
67893;DHT22;54688;52.376;16.744;2023-05-16T16:26:04;12.6;70.8
67893;DHT22;54688;52.376;16.744;2023-05-16T16:29:06;12.6;70.2
67893;DHT22;54688;52.376;16.744;2023-05-16T16:32:09;12.5;69.7
67893;DHT22;54688;52.376;16.744;2023-05-16T16:35:11;12.4;70.1
67893;DHT22;54688;52.376;16.744;2023-05-16T16:41:12;12.4;69.8
67893;DHT22;54688;52.376;16.744;2023-05-16T16:44:15;12.4;69.9
67893;DHT22;54688;52.376;16.744;2023-05-16T16:47:17;12.4;69.5
67893;DHT22;54688;52.376;16.744;2023-05-16T16:50:20;12.3;70.2
67893;DHT22;54688;52.376;16.744;2023-05-16T16:53:22;12.2;69.7
67893;DHT22;54688;52.376;16.744;2023-05-16T16:56:24;12.2;69.8
67893;DHT22;54688;52.376;16.744;2023-05-16T16:59:26;12.1;70.1
67893;DHT22;54688;52.376;16.744;2023-05-16T17:02:28;12;70.6
67893;DHT22;54688;52.376;16.744;2023-05-16T17:05:30;11.9;70.6
67893;DHT22;54688;52.376;16.744;2023-05-16T17:08:33;11.9;70.3
67893;DHT22;54688;52.376;16.744;2023-05-16T17:11:35;11.9;70.4
67893;DHT22;54688;52.376;16.744;2023-05-16T17:14:38;11.8;70.4
67893;DHT22;54688;52.376;16.744;2023-05-16T17:17:39;11.8;70.6
67893;DHT22;54688;52.376;16.744;2023-05-16T17:20:41;11.7;70.6
67893;DHT22;54688;52.376;16.744;2023-05-16T17:23:44;11.7;70
67893;DHT22;54688;52.376;16.744;2023-05-16T17:26:46;11.6;70.3
67893;DHT22;54688;52.376;16.744;2023-05-16T17:29:48;11.5;70.5
67893;DHT22;54688;52.376;16.744;2023-05-16T17:32:50;11.5;70.5
67893;DHT22;54688;52.376;16.744;2023-05-16T17:35:52;11.5;70.9
67893;DHT22;54688;52.376;16.744;2023-05-16T17:38:53;11.5;70.3
67893;DHT22;54688;52.376;16.744;2023-05-16T17:41:55;11.5;70.6
67893;DHT22;54688;52.376;16.744;2023-05-16T17:44:57;11.4;70.4
67893;DHT22;54688;52.376;16.744;2023-05-16T17:47:59;11.3;70.1
67893;DHT22;54688;52.376;16.744;2023-05-16T17:51:01;11.3;70.2
67893;DHT22;54688;52.376;16.744;2023-05-16T17:54:03;11.3;70.3
67893;DHT22;54688;52.376;16.744;2023-05-16T17:57:06;11.2;71.2
67893;DHT22;54688;52.376;16.744;2023-05-16T18:00:08;11.2;70.6
67893;DHT22;54688;52.376;16.744;2023-05-16T18:03:11;11.2;70.8
67893;DHT22;54688;52.376;16.744;2023-05-16T18:06:13;11.2;71.1
67893;DHT22;54688;52.376;16.744;2023-05-16T18:09:14;11.1;71
67893;DHT22;54688;52.376;16.744;2023-05-16T18:12:16;11.1;71.2
67893;DHT22;54688;52.376;16.744;2023-05-16T18:15:19;11.1;72
67893;DHT22;54688;52.376;16.744;2023-05-16T18:18:20;11.2;71.5
67893;DHT22;54688;52.376;16.744;2023-05-16T18:21:23;11.2;71
67893;DHT22;54688;52.376;16.744;2023-05-16T18:24:24;11.1;70.9
67893;DHT22;54688;52.376;16.744;2023-05-16T18:27:26;11.2;71.1
67893;DHT22;54688;52.376;16.744;2023-05-16T18:30:29;11.2;71
67893;DHT22;54688;52.376;16.744;2023-05-16T18:33:31;11.1;70.6
67893;DHT22;54688;52.376;16.744;2023-05-16T18:36:33;11.1;70.2
67893;DHT22;54688;52.376;16.744;2023-05-16T18:39:36;11.1;70.1
67893;DHT22;54688;52.376;16.744;2023-05-16T18:42:38;11.1;70.4
67893;DHT22;54688;52.376;16.744;2023-05-16T18:45:39;11.1;70.8
67893;DHT22;54688;52.376;16.744;2023-05-16T18:48:41;11;70.4
67893;DHT22;54688;52.376;16.744;2023-05-16T18:51:43;11.1;70
67893;DHT22;54688;52.376;16.744;2023-05-16T18:54:45;11;70.2
67893;DHT22;54688;52.376;16.744;2023-05-16T18:57:46;11;70.1
67893;DHT22;54688;52.376;16.744;2023-05-16T19:00:49;11;70.4
67893;DHT22;54688;52.376;16.744;2023-05-16T19:03:51;11;70.5
67893;DHT22;54688;52.376;16.744;2023-05-16T19:06:53;10.9;70.5
67893;DHT22;54688;52.376;16.744;2023-05-16T19:09:55;10.9;70.7
67893;DHT22;54688;52.376;16.744;2023-05-16T19:12:58;10.9;70.8
67893;DHT22;54688;52.376;16.744;2023-05-16T19:16:00;10.9;71.2
67893;DHT22;54688;52.376;16.744;2023-05-16T19:19:02;10.9;71.1
67893;DHT22;54688;52.376;16.744;2023-05-16T19:22:03;10.9;71.3
67893;DHT22;54688;52.376;16.744;2023-05-16T19:25:06;10.9;71.4
67893;DHT22;54688;52.376;16.744;2023-05-16T19:28:09;10.9;71.2
67893;DHT22;54688;52.376;16.744;2023-05-16T19:31:11;10.9;71
67893;DHT22;54688;52.376;16.744;2023-05-16T19:34:12;10.8;71.3
67893;DHT22;54688;52.376;16.744;2023-05-16T19:37:15;10.8;72.1
67893;DHT22;54688;52.376;16.744;2023-05-16T19:40:17;10.8;71.6
67893;DHT22;54688;52.376;16.744;2023-05-16T19:43:19;10.8;71.9
67893;DHT22;54688;52.376;16.744;2023-05-16T19:46:21;10.8;72
67893;DHT22;54688;52.376;16.744;2023-05-16T19:49:23;10.8;72.3
67893;DHT22;54688;52.376;16.744;2023-05-16T19:52:25;10.7;73.6
67893;DHT22;54688;52.376;16.744;2023-05-16T19:55:27;10.7;72.9
67893;DHT22;54688;52.376;16.744;2023-05-16T19:58:30;10.7;73.1